createdAt,value
2019-06-20T00:01:43.526Z,31.50
2019-06-20T00:04:41.355Z,31.40
2019-06-20T00:11:05.694Z,31.40
2019-06-20T00:14:30.735Z,31.50
2019-06-20T00:21:52.638Z,31.50
2019-06-20T00:29:01.363Z,31.50
2019-06-20T00:32:03.350Z,31.50
2019-06-20T00:35:01.577Z,31.50
2019-06-20T00:38:05.293Z,31.50
2019-06-20T00:41:30.238Z,31.50
2019-06-20T00:44:33.776Z,31.50
2019-06-20T00:47:34.136Z,31.50
2019-06-20T00:50:32.488Z,31.50
2019-06-20T00:53:44.420Z,31.50
2019-06-20T00:56:59.339Z,31.50
2019-06-20T01:00:05.667Z,31.50
2019-06-20T01:03:15.918Z,31.50
2019-06-20T01:06:32.536Z,31.50
2019-06-20T01:10:13.305Z,31.50
2019-06-20T01:13:33.054Z,31.50
2019-06-20T01:16:11.815Z,31.50
2019-06-20T01:19:07.515Z,31.50
2019-06-20T01:22:03.313Z,31.50
2019-06-20T01:24:57.458Z,31.50
2019-06-20T01:27:49.466Z,31.50
2019-06-20T01:30:43.138Z,31.50
2019-06-20T01:33:35.897Z,31.50
2019-06-20T01:36:29.425Z,31.50
2019-06-20T01:39:21.882Z,31.50
2019-06-20T01:42:14.623Z,31.50
2019-06-20T01:45:07.076Z,31.50
2019-06-20T01:47:59.178Z,31.50
2019-06-20T01:50:51.630Z,31.60
2019-06-20T01:53:43.949Z,31.50
2019-06-20T01:56:36.244Z,31.60
2019-06-20T01:59:28.171Z,31.50
2019-06-20T02:02:20.445Z,31.50
2019-06-20T02:05:13.970Z,31.60
2019-06-20T02:08:06.522Z,31.60
2019-06-20T02:15:25.509Z,31.60
2019-06-20T02:19:26.810Z,31.60
2019-06-20T02:21:50.977Z,31.50
2019-06-20T02:25:42.212Z,31.60
2019-06-20T02:28:48.738Z,31.60
2019-06-20T02:32:48.370Z,31.60
2019-06-20T02:36:29.972Z,31.60
2019-06-20T02:42:48.462Z,31.60
2019-06-20T02:45:45.978Z,31.60
2019-06-20T02:48:42.675Z,31.60
2019-06-20T02:51:40.493Z,31.60
2019-06-20T02:54:52.012Z,31.60
2019-06-20T02:57:56.202Z,31.60
2019-06-20T03:01:04.261Z,31.60
2019-06-20T03:04:05.015Z,31.60
2019-06-20T03:07:11.881Z,31.60
2019-06-20T03:10:18.880Z,31.60
2019-06-20T03:13:11.944Z,31.60
2019-06-20T03:16:08.146Z,31.60
2019-06-20T03:19:01.763Z,31.60
2019-06-20T03:22:15.891Z,31.60
2019-06-20T03:25:11.408Z,31.60
2019-06-20T03:28:26.085Z,31.60
2019-06-20T03:31:29.367Z,31.60
2019-06-20T03:34:34.431Z,31.70
2019-06-20T03:37:33.334Z,31.70
2019-06-20T03:40:43.872Z,31.70
2019-06-20T03:44:03.322Z,31.70
2019-06-20T03:47:04.010Z,31.70
2019-06-20T03:50:08.277Z,31.70
2019-06-20T03:53:33.899Z,31.70
2019-06-20T03:57:17.426Z,31.70
2019-06-20T04:03:08.853Z,31.70
2019-06-20T04:06:19.076Z,31.70
2019-06-20T04:09:33.863Z,31.70
2019-06-20T04:12:42.012Z,31.70
2019-06-20T04:16:29.091Z,31.70
2019-06-20T04:23:23.900Z,31.70
2019-06-20T04:30:13.723Z,31.70
2019-06-20T04:33:19.670Z,31.70
2019-06-20T04:48:03.748Z,31.80
2019-06-20T04:50:55.805Z,31.80
2019-06-20T04:53:49.846Z,31.80
2019-06-20T04:56:40.667Z,31.80
2019-06-20T04:59:32.676Z,31.80
2019-06-20T05:05:56.826Z,31.80
2019-06-20T05:08:53.390Z,31.80
2019-06-20T05:11:55.067Z,31.80
2019-06-20T05:14:50.114Z,31.80
2019-06-20T05:17:43.844Z,31.80
2019-06-20T05:20:37.034Z,31.80
2019-06-20T05:23:29.135Z,31.80
2019-06-20T05:26:21.369Z,31.80
2019-06-20T05:29:16.102Z,31.80
2019-06-20T05:32:12.893Z,31.80
2019-06-20T05:35:09.983Z,31.80
2019-06-20T05:38:04.669Z,31.80
2019-06-20T05:40:59.750Z,31.80
2019-06-20T05:43:53.687Z,31.80
2019-06-20T05:46:48.244Z,31.80
2019-06-20T05:49:41.711Z,31.80
2019-06-20T05:52:38.489Z,31.80
2019-06-20T05:55:33.001Z,31.80
2019-06-20T05:58:26.712Z,31.80
2019-06-20T06:01:26.437Z,31.80
2019-06-20T06:04:24.174Z,31.80
2019-06-20T06:07:18.043Z,31.80
2019-06-20T06:10:20.272Z,31.80
2019-06-20T06:13:28.041Z,31.80
2019-06-20T06:16:27.277Z,31.80
2019-06-20T06:19:33.030Z,31.80
2019-06-20T06:23:03.751Z,31.80
2019-06-20T06:26:06.206Z,31.80
2019-06-20T06:29:06.958Z,31.80
2019-06-20T06:32:14.639Z,31.80
2019-06-20T06:35:26.455Z,31.80
2019-06-20T06:39:16.028Z,31.80
2019-06-20T06:42:06.725Z,31.80
2019-06-20T06:51:52.229Z,31.80
2019-06-20T06:55:05.522Z,31.80
2019-06-20T06:57:59.882Z,31.80
2019-06-20T07:01:24.256Z,31.80
2019-06-20T07:04:17.507Z,31.80
2019-06-20T07:07:17.260Z,31.70
2019-06-20T07:10:13.744Z,31.80
2019-06-20T07:13:15.608Z,31.70
2019-06-20T07:16:08.575Z,31.70
2019-06-20T07:19:17.067Z,31.70
2019-06-20T07:22:17.541Z,31.80
2019-06-20T07:25:38.994Z,31.80
2019-06-20T07:28:17.621Z,31.70
2019-06-20T07:35:57.586Z,31.70
2019-06-20T07:38:56.423Z,31.70
2019-06-20T07:41:52.578Z,31.70
2019-06-20T07:44:49.192Z,31.70
2019-06-20T07:47:50.216Z,31.70
2019-06-20T07:51:09.062Z,31.70
2019-06-20T07:54:22.077Z,31.70
2019-06-20T07:57:39.208Z,31.70
2019-06-20T08:00:35.339Z,31.70
2019-06-20T08:03:31.009Z,31.70
2019-06-20T08:06:23.304Z,31.70
2019-06-20T08:09:24.886Z,31.70
2019-06-20T08:12:17.189Z,31.70
2019-06-20T08:15:15.054Z,31.70
2019-06-20T08:18:05.284Z,31.70
2019-06-20T08:21:02.280Z,31.70
2019-06-20T08:24:10.078Z,31.70
2019-06-20T08:27:09.976Z,31.70
2019-06-20T08:30:09.307Z,31.70
2019-06-20T08:36:38.960Z,31.70
2019-06-20T08:39:59.939Z,31.70
2019-06-20T08:43:42.152Z,31.70
2019-06-20T08:46:23.811Z,31.70
2019-06-20T08:49:33.367Z,31.70
2019-06-20T08:52:36.386Z,31.60
2019-06-20T08:55:26.692Z,31.60
2019-06-20T09:18:54.985Z,31.60
2019-06-20T09:22:06.987Z,31.60
2019-06-20T09:25:02.941Z,31.60
2019-06-20T09:37:37.965Z,31.60
2019-06-20T09:40:43.748Z,31.60
2019-06-20T09:43:46.629Z,31.60
2019-06-20T09:46:41.114Z,31.60
2019-06-20T09:49:36.072Z,31.60
2019-06-20T09:52:39.201Z,31.60
2019-06-20T09:56:10.172Z,31.60
2019-06-20T09:58:58.237Z,31.70
2019-06-20T10:01:59.863Z,31.70
2019-06-20T10:04:56.697Z,31.70
2019-06-20T10:07:52.292Z,31.70
2019-06-20T10:10:51.087Z,31.60
2019-06-20T10:13:54.227Z,31.70
2019-06-20T10:16:50.959Z,31.70
2019-06-20T10:19:48.381Z,31.70
2019-06-20T10:23:14.875Z,31.70
2019-06-20T10:26:21.390Z,31.70
2019-06-20T10:29:29.742Z,31.70
2019-06-20T10:32:24.983Z,31.70
2019-06-20T10:35:32.914Z,31.70
2019-06-20T10:38:29.694Z,31.70
2019-06-20T10:41:46.768Z,31.70
2019-06-20T10:44:49.767Z,31.70
2019-06-20T10:47:50.966Z,31.70
2019-06-20T10:50:48.106Z,31.70
2019-06-20T10:53:43.094Z,31.90
2019-06-20T10:56:36.935Z,31.40
2019-06-20T10:59:46.501Z,30.90
2019-06-20T11:02:43.414Z,30.40
2019-06-20T11:05:40.483Z,30.10
2019-06-20T11:08:37.245Z,29.80
2019-06-20T11:11:38.358Z,29.60
2019-06-20T11:14:46.226Z,29.40
2019-06-20T11:17:57.061Z,29.30
2019-06-20T11:21:03.833Z,29.10
2019-06-20T11:24:10.631Z,29.20
2019-06-20T11:27:15.319Z,29.20
2019-06-20T11:30:11.274Z,29.40
2019-06-20T11:33:05.810Z,29.70
2019-06-20T11:36:00.028Z,29.80
2019-06-20T11:39:03.376Z,30.00
2019-06-20T11:42:05.191Z,30.10
2019-06-20T11:45:00.100Z,30.20
2019-06-20T11:47:54.522Z,30.30
2019-06-20T11:50:49.525Z,30.40
2019-06-20T11:53:43.964Z,30.50
2019-06-20T11:56:51.818Z,30.50
2019-06-20T11:59:45.762Z,30.60
2019-06-20T12:02:42.021Z,30.60
2019-06-20T12:05:36.381Z,30.60
2019-06-20T12:08:34.822Z,30.70
2019-06-20T12:11:30.088Z,30.70
2019-06-20T12:14:30.702Z,30.80
2019-06-20T12:20:46.779Z,30.90
2019-06-20T12:23:44.947Z,30.90
2019-06-20T12:26:44.350Z,30.90
2019-06-20T12:29:46.521Z,30.90
2019-06-20T12:32:39.153Z,30.90
2019-06-20T12:35:42.644Z,30.90
2019-06-20T12:38:46.273Z,30.90
2019-06-20T12:41:50.093Z,31.00
2019-06-20T12:44:45.984Z,31.00
2019-06-20T12:47:50.135Z,31.00
2019-06-20T12:50:45.501Z,31.00
2019-06-20T12:53:41.975Z,31.00
2019-06-20T12:56:40.247Z,31.10
2019-06-20T12:59:31.945Z,31.10
2019-06-20T13:02:27.807Z,31.10
2019-06-20T13:05:22.228Z,31.10
2019-06-20T13:08:14.917Z,31.10
2019-06-20T13:11:07.536Z,31.10
2019-06-20T13:14:01.365Z,31.10
2019-06-20T13:16:54.333Z,31.10
2019-06-20T13:19:48.489Z,31.10
2019-06-20T13:22:44.881Z,31.20
2019-06-20T13:25:39.594Z,31.20
2019-06-20T13:28:32.839Z,31.20
2019-06-20T13:31:26.291Z,31.20
2019-06-20T13:34:19.560Z,31.20
2019-06-20T13:37:15.397Z,31.20
2019-06-20T13:40:09.876Z,31.20
2019-06-20T13:43:03.950Z,31.20
2019-06-20T13:45:57.556Z,31.20
2019-06-20T13:48:50.774Z,31.20
2019-06-20T13:51:43.458Z,31.20
2019-06-20T13:54:35.996Z,31.20
2019-06-20T13:57:29.879Z,31.20
2019-06-20T14:00:22.919Z,31.30
2019-06-20T14:03:16.678Z,31.30
2019-06-20T14:06:09.553Z,31.30
2019-06-20T14:09:03.835Z,31.30
2019-06-20T14:11:57.177Z,31.30
2019-06-20T14:14:50.581Z,31.30
2019-06-20T14:17:45.045Z,31.30
2019-06-20T14:20:37.421Z,31.30
2019-06-20T14:23:30.744Z,31.30
2019-06-20T14:26:23.998Z,31.30
2019-06-20T14:29:16.848Z,31.30
2019-06-20T14:32:21.545Z,31.30
2019-06-20T14:35:04.050Z,31.30
2019-06-20T14:37:56.602Z,31.30
2019-06-20T14:40:49.953Z,31.30
2019-06-20T14:43:44.722Z,31.30
2019-06-20T14:46:38.163Z,31.30
2019-06-20T14:49:32.139Z,31.30
2019-06-20T14:52:24.775Z,31.40
2019-06-20T14:55:18.804Z,31.40
2019-06-20T14:58:11.408Z,31.40
2019-06-20T15:01:04.378Z,31.40
2019-06-20T15:03:56.902Z,31.40
2019-06-20T15:06:50.373Z,31.40
2019-06-20T15:09:44.418Z,31.40
2019-06-20T15:12:37.812Z,31.40
2019-06-20T15:15:31.613Z,31.40
2019-06-20T15:18:24.992Z,31.40
2019-06-20T15:21:17.379Z,31.40
2019-06-20T15:24:10.147Z,31.40
2019-06-20T15:27:02.479Z,31.40
2019-06-20T15:29:56.568Z,31.40
2019-06-20T15:33:01.918Z,31.40
2019-06-20T15:35:44.495Z,31.40
2019-06-20T15:38:37.471Z,31.40
2019-06-20T15:41:30.970Z,31.40
2019-06-20T15:44:24.634Z,31.40
2019-06-20T15:47:18.062Z,31.40
2019-06-20T15:50:12.951Z,31.40
2019-06-20T15:53:05.444Z,31.40
2019-06-20T15:55:58.216Z,31.40
2019-06-20T15:58:51.947Z,31.40
2019-06-20T16:01:44.304Z,31.40
2019-06-20T16:04:37.439Z,31.40
2019-06-20T16:07:30.787Z,31.40
2019-06-20T16:10:23.737Z,31.40
2019-06-20T16:13:16.944Z,31.40
2019-06-20T16:16:10.527Z,31.40
2019-06-20T16:19:05.040Z,31.40
2019-06-20T16:21:57.614Z,31.40
2019-06-20T16:24:50.650Z,31.40
2019-06-20T16:27:44.155Z,31.40
2019-06-20T16:30:36.785Z,31.40
2019-06-20T16:33:30.223Z,31.40
2019-06-20T16:36:23.472Z,31.40
2019-06-20T16:39:16.484Z,31.40
2019-06-20T16:42:09.512Z,31.40
2019-06-20T16:45:02.438Z,31.40
2019-06-20T16:47:55.253Z,31.40
2019-06-20T16:50:49.028Z,31.40
2019-06-20T16:53:41.507Z,31.40
2019-06-20T16:56:35.025Z,31.40
2019-06-20T16:59:28.070Z,31.40
2019-06-20T17:02:20.931Z,31.40
2019-06-20T17:05:14.259Z,31.40
2019-06-20T17:08:07.287Z,31.40
2019-06-20T17:11:00.523Z,31.40
2019-06-20T17:13:54.058Z,31.40
2019-06-20T17:16:46.843Z,31.30
2019-06-20T17:19:42.166Z,31.30
2019-06-20T17:22:34.297Z,31.30
2019-06-20T17:25:28.529Z,31.40
2019-06-20T17:28:21.599Z,31.40
2019-06-20T17:31:15.951Z,31.40
2019-06-20T17:34:08.445Z,31.40
2019-06-20T17:37:01.231Z,31.40
2019-06-20T17:39:53.695Z,31.40
2019-06-20T17:42:46.484Z,31.40
2019-06-20T17:45:39.355Z,31.40
2019-06-20T17:48:32.057Z,31.40
2019-06-20T17:51:26.122Z,31.30
2019-06-20T17:54:19.492Z,31.30
2019-06-20T17:57:12.164Z,31.40
2019-06-20T18:00:06.547Z,31.40
2019-06-20T18:03:00.867Z,31.30
2019-06-20T18:05:53.835Z,31.30
2019-06-20T18:08:46.649Z,31.30
2019-06-20T18:11:39.291Z,31.30
2019-06-20T18:14:34.079Z,31.30
2019-06-20T18:17:27.043Z,31.30
2019-06-20T18:20:19.859Z,31.30
2019-06-20T18:23:13.861Z,31.30
2019-06-20T18:26:06.988Z,31.30
2019-06-20T18:28:59.699Z,31.30
2019-06-20T18:31:52.259Z,31.30
2019-06-20T18:35:00.509Z,31.30
2019-06-20T18:37:38.528Z,31.30
2019-06-20T18:40:31.042Z,31.30
2019-06-20T18:43:23.434Z,31.30
2019-06-20T18:46:15.840Z,31.30
2019-06-20T18:49:08.567Z,31.30
2019-06-20T18:52:00.865Z,31.30
2019-06-20T18:54:53.851Z,31.30
2019-06-20T18:57:46.436Z,31.30
2019-06-20T19:00:39.760Z,31.30
2019-06-20T19:03:32.736Z,31.30
2019-06-20T19:06:35.380Z,31.30
2019-06-20T19:09:19.678Z,31.30
2019-06-20T19:12:12.972Z,31.30
2019-06-20T19:15:06.136Z,31.30
2019-06-20T19:17:59.156Z,31.30
2019-06-20T19:20:51.911Z,31.30
2019-06-20T19:23:45.412Z,31.30
2019-06-20T19:26:38.445Z,31.30
2019-06-20T19:29:31.086Z,31.30
2019-06-20T19:32:24.091Z,31.30
2019-06-20T19:35:16.584Z,31.30
2019-06-20T19:38:09.292Z,31.30
2019-06-20T19:41:02.152Z,31.30
2019-06-20T19:43:54.984Z,31.30
2019-06-20T19:46:47.791Z,31.30
2019-06-20T19:49:40.993Z,31.30
2019-06-20T19:52:33.419Z,31.40
2019-06-20T19:55:26.064Z,31.30
2019-06-20T19:58:18.571Z,31.30
2019-06-20T20:01:12.028Z,31.30
2019-06-20T20:04:05.514Z,31.30
2019-06-20T20:06:58.466Z,31.30
2019-06-20T20:09:51.131Z,31.30
2019-06-20T20:12:43.951Z,31.30
2019-06-20T20:15:36.917Z,31.30
2019-06-20T20:18:29.546Z,31.30
2019-06-20T20:21:22.222Z,31.30
2019-06-20T20:24:15.147Z,31.30
2019-06-20T20:27:07.859Z,31.30
2019-06-20T20:30:02.374Z,31.30
2019-06-20T20:32:56.132Z,31.30
2019-06-20T20:35:48.661Z,31.30
2019-06-20T20:38:41.191Z,31.30
2019-06-20T20:41:33.793Z,31.30
2019-06-20T20:44:26.247Z,31.30
2019-06-20T20:47:19.126Z,31.30
2019-06-20T20:50:12.119Z,31.30
2019-06-20T20:53:04.701Z,31.30
2019-06-20T20:55:57.466Z,31.30
2019-06-20T20:58:50.407Z,31.30
2019-06-20T21:01:43.760Z,31.30
2019-06-20T21:04:36.286Z,31.30
2019-06-20T21:07:28.785Z,31.30
2019-06-20T21:10:21.455Z,31.30
2019-06-20T21:13:13.772Z,31.30
2019-06-20T21:16:06.932Z,31.30
2019-06-20T21:18:59.837Z,31.30
2019-06-20T21:21:52.431Z,31.30
2019-06-20T21:24:45.228Z,31.30
2019-06-20T21:27:37.607Z,31.30
2019-06-20T21:30:29.808Z,31.30
2019-06-20T21:33:22.180Z,31.30
2019-06-20T21:36:14.819Z,31.30
2019-06-20T21:39:07.950Z,31.30
2019-06-20T21:42:00.769Z,31.30
2019-06-20T21:44:53.171Z,31.30
2019-06-20T21:47:46.200Z,31.30
2019-06-20T21:50:38.431Z,31.30
2019-06-20T21:53:31.003Z,31.30
2019-06-20T21:56:23.217Z,31.30
2019-06-20T21:59:15.889Z,31.30
2019-06-20T22:02:08.908Z,31.30
2019-06-20T22:05:01.227Z,31.30
2019-06-20T22:07:54.041Z,31.30
2019-06-20T22:10:46.631Z,31.30
2019-06-20T22:13:39.725Z,31.30
2019-06-20T22:16:32.567Z,31.30
2019-06-20T22:19:25.551Z,31.30
2019-06-20T22:22:18.061Z,31.30
2019-06-20T22:25:10.677Z,31.30
2019-06-20T22:28:03.124Z,31.30
2019-06-20T22:30:58.246Z,31.30
2019-06-20T22:33:52.326Z,31.30
2019-06-20T22:36:44.914Z,31.30
2019-06-20T22:39:37.509Z,31.30
2019-06-20T22:42:31.296Z,31.30
2019-06-20T22:45:24.308Z,31.30
2019-06-20T22:48:17.190Z,31.30
2019-06-20T22:51:09.896Z,31.30
2019-06-20T22:54:02.677Z,31.30
2019-06-20T22:56:55.262Z,31.30
2019-06-20T22:59:48.118Z,31.30
2019-06-20T23:02:41.543Z,31.30
2019-06-20T23:05:35.429Z,31.30
2019-06-20T23:08:29.242Z,31.30
2019-06-20T23:11:21.742Z,31.30
2019-06-20T23:14:13.911Z,31.30
2019-06-20T23:17:06.937Z,31.30
2019-06-20T23:19:59.136Z,31.30
2019-06-20T23:22:52.086Z,31.30
2019-06-20T23:25:46.279Z,31.30
2019-06-20T23:28:39.170Z,31.30
2019-06-20T23:31:31.700Z,31.30
2019-06-20T23:34:24.933Z,31.30
2019-06-20T23:37:17.527Z,31.30
2019-06-20T23:40:10.472Z,31.30
2019-06-20T23:43:03.122Z,31.30
2019-06-20T23:45:55.893Z,31.30
2019-06-20T23:48:48.578Z,31.30
2019-06-20T23:51:45.844Z,31.20
2019-06-20T23:54:38.317Z,31.30
2019-06-20T23:57:31.065Z,31.20
